sensor_id;sensor_type;location;lat;lon;timestamp;P1;durP1;ratioP1;P2;durP2;ratioP2
22184;SDS011;11258;52.516;13.318;2023-05-07T00:01:02;16.93;;;11.47;;
22184;SDS011;11258;52.516;13.318;2023-05-07T00:03:27;16.93;;;12.07;;
22184;SDS011;11258;52.516;13.318;2023-05-07T00:05:53;16.63;;;11.87;;
22184;SDS011;11258;52.516;13.318;2023-05-07T00:08:19;16.97;;;11.77;;
22184;SDS011;11258;52.516;13.318;2023-05-07T00:10:45;16.63;;;11.63;;
22184;SDS011;11258;52.516;13.318;2023-05-07T00:13:11;15.03;;;11.63;;
22184;SDS011;11258;52.516;13.318;2023-05-07T00:15:37;14.07;;;10.63;;
22184;SDS011;11258;52.516;13.318;2023-05-07T00:18:02;16.33;;;10.37;;
22184;SDS011;11258;52.516;13.318;2023-05-07T00:20:28;14.60;;;11.47;;
22184;SDS011;11258;52.516;13.318;2023-05-07T00:22:54;14.30;;;11.00;;
22184;SDS011;11258;52.516;13.318;2023-05-07T00:25:20;14.70;;;10.50;;
22184;SDS011;11258;52.516;13.318;2023-05-07T00:27:45;14.13;;;9.93;;
22184;SDS011;11258;52.516;13.318;2023-05-07T00:30:11;19.67;;;12.20;;
22184;SDS011;11258;52.516;13.318;2023-05-07T00:32:37;15.50;;;11.20;;
22184;SDS011;11258;52.516;13.318;2023-05-07T00:35:04;14.80;;;11.10;;
22184;SDS011;11258;52.516;13.318;2023-05-07T00:37:30;13.23;;;10.03;;
22184;SDS011;11258;52.516;13.318;2023-05-07T00:39:56;13.83;;;9.90;;
22184;SDS011;11258;52.516;13.318;2023-05-07T00:42:22;16.57;;;10.53;;
22184;SDS011;11258;52.516;13.318;2023-05-07T00:44:47;13.40;;;10.10;;
22184;SDS011;11258;52.516;13.318;2023-05-07T00:47:13;11.73;;;9.13;;
22184;SDS011;11258;52.516;13.318;2023-05-07T00:49:42;14.07;;;9.60;;
22184;SDS011;11258;52.516;13.318;2023-05-07T00:52:10;13.10;;;9.60;;
22184;SDS011;11258;52.516;13.318;2023-05-07T00:54:38;14.77;;;10.00;;
22184;SDS011;11258;52.516;13.318;2023-05-07T00:57:06;13.83;;;9.63;;
22184;SDS011;11258;52.516;13.318;2023-05-07T00:59:33;13.53;;;10.23;;
22184;SDS011;11258;52.516;13.318;2023-05-07T01:02:00;12.13;;;9.70;;
22184;SDS011;11258;52.516;13.318;2023-05-07T01:04:26;14.53;;;9.70;;
22184;SDS011;11258;52.516;13.318;2023-05-07T01:06:52;13.63;;;9.87;;
22184;SDS011;11258;52.516;13.318;2023-05-07T01:09:21;14.50;;;10.47;;
22184;SDS011;11258;52.516;13.318;2023-05-07T01:11:48;16.27;;;11.57;;
22184;SDS011;11258;52.516;13.318;2023-05-07T01:14:15;14.70;;;11.03;;
22184;SDS011;11258;52.516;13.318;2023-05-07T01:16:42;12.43;;;9.90;;
22184;SDS011;11258;52.516;13.318;2023-05-07T01:19:08;14.77;;;10.63;;
22184;SDS011;11258;52.516;13.318;2023-05-07T01:21:35;13.47;;;10.77;;
22184;SDS011;11258;52.516;13.318;2023-05-07T01:24:04;12.30;;;10.33;;
22184;SDS011;11258;52.516;13.318;2023-05-07T01:26:30;13.37;;;10.20;;
22184;SDS011;11258;52.516;13.318;2023-05-07T01:28:56;14.23;;;9.83;;
22184;SDS011;11258;52.516;13.318;2023-05-07T01:31:21;11.40;;;9.50;;
22184;SDS011;11258;52.516;13.318;2023-05-07T01:33:49;13.00;;;9.67;;
22184;SDS011;11258;52.516;13.318;2023-05-07T01:36:17;13.90;;;9.83;;
22184;SDS011;11258;52.516;13.318;2023-05-07T01:38:43;13.57;;;10.70;;
22184;SDS011;11258;52.516;13.318;2023-05-07T01:41:11;14.03;;;9.30;;
22184;SDS011;11258;52.516;13.318;2023-05-07T01:43:38;12.53;;;9.30;;
22184;SDS011;11258;52.516;13.318;2023-05-07T01:46:06;13.40;;;9.40;;
22184;SDS011;11258;52.516;13.318;2023-05-07T01:48:34;12.63;;;9.47;;
22184;SDS011;11258;52.516;13.318;2023-05-07T01:51:00;9.63;;;8.63;;
22184;SDS011;11258;52.516;13.318;2023-05-07T01:53:27;12.90;;;9.07;;
22184;SDS011;11258;52.516;13.318;2023-05-07T01:55:53;13.87;;;9.10;;
22184;SDS011;11258;52.516;13.318;2023-05-07T01:58:19;11.60;;;8.77;;
22184;SDS011;11258;52.516;13.318;2023-05-07T02:00:44;12.73;;;9.43;;
22184;SDS011;11258;52.516;13.318;2023-05-07T02:03:10;12.13;;;8.93;;
22184;SDS011;11258;52.516;13.318;2023-05-07T02:05:36;14.43;;;9.63;;
22184;SDS011;11258;52.516;13.318;2023-05-07T02:08:01;15.10;;;9.73;;
22184;SDS011;11258;52.516;13.318;2023-05-07T02:10:27;13.73;;;9.47;;
22184;SDS011;11258;52.516;13.318;2023-05-07T02:12:53;12.90;;;9.90;;
22184;SDS011;11258;52.516;13.318;2023-05-07T02:15:18;13.40;;;9.90;;
22184;SDS011;11258;52.516;13.318;2023-05-07T02:18:03;13.37;;;10.27;;
22184;SDS011;11258;52.516;13.318;2023-05-07T02:20:31;14.20;;;9.90;;
22184;SDS011;11258;52.516;13.318;2023-05-07T02:22:57;12.77;;;9.90;;
22184;SDS011;11258;52.516;13.318;2023-05-07T02:25:23;13.83;;;10.67;;
22184;SDS011;11258;52.516;13.318;2023-05-07T02:27:48;16.93;;;11.07;;
22184;SDS011;11258;52.516;13.318;2023-05-07T02:30:14;13.87;;;10.77;;
22184;SDS011;11258;52.516;13.318;2023-05-07T02:32:40;15.10;;;11.07;;
22184;SDS011;11258;52.516;13.318;2023-05-07T02:35:06;12.90;;;11.00;;
22184;SDS011;11258;52.516;13.318;2023-05-07T02:37:32;15.10;;;10.63;;
22184;SDS011;11258;52.516;13.318;2023-05-07T02:39:57;14.07;;;10.70;;
22184;SDS011;11258;52.516;13.318;2023-05-07T02:42:23;15.43;;;10.70;;
22184;SDS011;11258;52.516;13.318;2023-05-07T02:44:48;12.87;;;10.07;;
22184;SDS011;11258;52.516;13.318;2023-05-07T02:47:14;14.10;;;10.53;;
22184;SDS011;11258;52.516;13.318;2023-05-07T02:49:40;14.60;;;10.27;;
22184;SDS011;11258;52.516;13.318;2023-05-07T02:52:06;14.23;;;10.37;;
22184;SDS011;11258;52.516;13.318;2023-05-07T02:54:32;17.23;;;10.33;;
22184;SDS011;11258;52.516;13.318;2023-05-07T02:56:58;13.07;;;10.20;;
22184;SDS011;11258;52.516;13.318;2023-05-07T02:59:25;14.20;;;10.70;;
22184;SDS011;11258;52.516;13.318;2023-05-07T03:01:51;14.13;;;11.25;;
22184;SDS011;11258;52.516;13.318;2023-05-07T03:04:17;12.47;;;10.37;;
22184;SDS011;11258;52.516;13.318;2023-05-07T03:06:42;12.63;;;8.93;;
22184;SDS011;11258;52.516;13.318;2023-05-07T03:09:08;11.80;;;9.03;;
22184;SDS011;11258;52.516;13.318;2023-05-07T03:11:33;14.27;;;9.40;;
22184;SDS011;11258;52.516;13.318;2023-05-07T03:14:00;14.17;;;9.93;;
22184;SDS011;11258;52.516;13.318;2023-05-07T03:16:26;13.97;;;9.33;;
22184;SDS011;11258;52.516;13.318;2023-05-07T03:18:52;12.23;;;9.03;;
22184;SDS011;11258;52.516;13.318;2023-05-07T03:21:17;14.07;;;9.03;;
22184;SDS011;11258;52.516;13.318;2023-05-07T03:23:43;13.63;;;9.73;;
22184;SDS011;11258;52.516;13.318;2023-05-07T03:26:09;14.50;;;8.53;;
22184;SDS011;11258;52.516;13.318;2023-05-07T03:28:34;10.20;;;7.17;;
22184;SDS011;11258;52.516;13.318;2023-05-07T03:31:00;11.17;;;7.60;;
22184;SDS011;11258;52.516;13.318;2023-05-07T03:33:26;11.10;;;7.87;;
22184;SDS011;11258;52.516;13.318;2023-05-07T03:35:52;12.17;;;8.70;;
22184;SDS011;11258;52.516;13.318;2023-05-07T03:38:18;11.43;;;8.63;;
22184;SDS011;11258;52.516;13.318;2023-05-07T03:40:43;11.83;;;8.80;;
22184;SDS011;11258;52.516;13.318;2023-05-07T03:43:09;10.93;;;8.93;;
22184;SDS011;11258;52.516;13.318;2023-05-07T03:45:35;11.20;;;8.50;;
22184;SDS011;11258;52.516;13.318;2023-05-07T03:48:01;10.13;;;7.80;;
22184;SDS011;11258;52.516;13.318;2023-05-07T03:50:26;12.77;;;9.00;;
22184;SDS011;11258;52.516;13.318;2023-05-07T03:52:52;12.53;;;8.53;;
22184;SDS011;11258;52.516;13.318;2023-05-07T03:55:17;12.30;;;8.47;;
22184;SDS011;11258;52.516;13.318;2023-05-07T03:57:43;13.47;;;9.47;;
22184;SDS011;11258;52.516;13.318;2023-05-07T04:00:09;12.70;;;9.23;;
22184;SDS011;11258;52.516;13.318;2023-05-07T04:02:36;12.73;;;9.10;;
22184;SDS011;11258;52.516;13.318;2023-05-07T04:05:02;11.33;;;9.03;;
22184;SDS011;11258;52.516;13.318;2023-05-07T04:07:28;14.60;;;9.80;;
22184;SDS011;11258;52.516;13.318;2023-05-07T04:09:54;11.57;;;9.30;;
22184;SDS011;11258;52.516;13.318;2023-05-07T04:12:20;13.60;;;10.10;;
22184;SDS011;11258;52.516;13.318;2023-05-07T04:14:46;12.10;;;9.43;;
22184;SDS011;11258;52.516;13.318;2023-05-07T04:17:12;15.93;;;10.50;;
22184;SDS011;11258;52.516;13.318;2023-05-07T04:19:38;11.07;;;9.07;;
22184;SDS011;11258;52.516;13.318;2023-05-07T04:22:04;11.87;;;9.57;;
22184;SDS011;11258;52.516;13.318;2023-05-07T04:24:33;12.47;;;9.40;;
22184;SDS011;11258;52.516;13.318;2023-05-07T04:26:59;10.23;;;8.83;;
22184;SDS011;11258;52.516;13.318;2023-05-07T04:29:25;10.23;;;8.40;;
22184;SDS011;11258;52.516;13.318;2023-05-07T04:31:50;11.27;;;8.93;;
22184;SDS011;11258;52.516;13.318;2023-05-07T04:34:16;11.43;;;8.67;;
22184;SDS011;11258;52.516;13.318;2023-05-07T04:36:42;10.63;;;7.70;;
22184;SDS011;11258;52.516;13.318;2023-05-07T04:39:08;11.33;;;7.77;;
22184;SDS011;11258;52.516;13.318;2023-05-07T04:41:36;11.90;;;7.60;;
22184;SDS011;11258;52.516;13.318;2023-05-07T04:44:02;10.80;;;7.80;;
22184;SDS011;11258;52.516;13.318;2023-05-07T04:46:29;9.27;;;7.37;;
22184;SDS011;11258;52.516;13.318;2023-05-07T04:48:55;9.80;;;7.40;;
22184;SDS011;11258;52.516;13.318;2023-05-07T04:51:21;10.10;;;7.30;;
22184;SDS011;11258;52.516;13.318;2023-05-07T04:53:47;8.20;;;6.87;;
22184;SDS011;11258;52.516;13.318;2023-05-07T04:56:13;9.23;;;7.50;;
22184;SDS011;11258;52.516;13.318;2023-05-07T04:58:39;8.37;;;6.30;;
22184;SDS011;11258;52.516;13.318;2023-05-07T05:01:05;8.13;;;7.10;;
22184;SDS011;11258;52.516;13.318;2023-05-07T05:03:32;9.33;;;6.67;;
22184;SDS011;11258;52.516;13.318;2023-05-07T05:05:58;9.20;;;6.40;;
22184;SDS011;11258;52.516;13.318;2023-05-07T05:08:24;10.23;;;6.70;;
22184;SDS011;11258;52.516;13.318;2023-05-07T05:10:50;7.90;;;6.20;;
22184;SDS011;11258;52.516;13.318;2023-05-07T05:13:16;7.77;;;6.10;;
22184;SDS011;11258;52.516;13.318;2023-05-07T05:15:42;9.27;;;5.77;;
22184;SDS011;11258;52.516;13.318;2023-05-07T05:18:08;11.47;;;6.00;;
22184;SDS011;11258;52.516;13.318;2023-05-07T05:20:35;10.13;;;6.50;;
22184;SDS011;11258;52.516;13.318;2023-05-07T05:23:00;7.97;;;6.10;;
22184;SDS011;11258;52.516;13.318;2023-05-07T05:25:26;9.00;;;5.80;;
22184;SDS011;11258;52.516;13.318;2023-05-07T05:27:53;10.17;;;6.30;;
22184;SDS011;11258;52.516;13.318;2023-05-07T05:30:18;7.73;;;5.77;;
22184;SDS011;11258;52.516;13.318;2023-05-07T05:32:44;7.13;;;6.10;;
22184;SDS011;11258;52.516;13.318;2023-05-07T05:35:10;31.30;;;19.10;;
22184;SDS011;11258;52.516;13.318;2023-05-07T05:37:35;8.47;;;6.00;;
22184;SDS011;11258;52.516;13.318;2023-05-07T05:40:01;9.13;;;6.23;;
22184;SDS011;11258;52.516;13.318;2023-05-07T05:42:27;6.30;;;5.40;;
22184;SDS011;11258;52.516;13.318;2023-05-07T05:44:53;6.23;;;5.57;;
22184;SDS011;11258;52.516;13.318;2023-05-07T05:47:18;8.17;;;5.50;;
22184;SDS011;11258;52.516;13.318;2023-05-07T05:49:44;6.03;;;5.20;;
22184;SDS011;11258;52.516;13.318;2023-05-07T05:52:11;9.43;;;6.10;;
22184;SDS011;11258;52.516;13.318;2023-05-07T05:54:38;6.37;;;5.53;;
22184;SDS011;11258;52.516;13.318;2023-05-07T05:57:04;7.30;;;4.47;;
22184;SDS011;11258;52.516;13.318;2023-05-07T05:59:29;8.63;;;5.20;;
22184;SDS011;11258;52.516;13.318;2023-05-07T06:01:55;6.43;;;5.20;;
22184;SDS011;11258;52.516;13.318;2023-05-07T06:04:21;6.67;;;5.77;;
22184;SDS011;11258;52.516;13.318;2023-05-07T06:06:46;8.10;;;5.80;;
22184;SDS011;11258;52.516;13.318;2023-05-07T06:09:12;7.53;;;6.20;;
22184;SDS011;11258;52.516;13.318;2023-05-07T06:11:38;8.27;;;5.70;;
22184;SDS011;11258;52.516;13.318;2023-05-07T06:14:04;7.03;;;5.27;;
22184;SDS011;11258;52.516;13.318;2023-05-07T06:16:30;9.40;;;5.97;;
22184;SDS011;11258;52.516;13.318;2023-05-07T06:18:55;8.35;;;5.40;;
22184;SDS011;11258;52.516;13.318;2023-05-07T06:21:21;5.77;;;4.97;;
22184;SDS011;11258;52.516;13.318;2023-05-07T06:23:47;7.85;;;5.05;;
22184;SDS011;11258;52.516;13.318;2023-05-07T06:26:12;5.90;;;4.90;;
22184;SDS011;11258;52.516;13.318;2023-05-07T06:28:38;8.13;;;5.65;;
22184;SDS011;11258;52.516;13.318;2023-05-07T06:33:39;7.30;;;5.47;;
22184;SDS011;11258;52.516;13.318;2023-05-07T06:36:05;7.80;;;5.50;;
22184;SDS011;11258;52.516;13.318;2023-05-07T06:38:31;8.17;;;5.97;;
22184;SDS011;11258;52.516;13.318;2023-05-07T06:40:56;8.33;;;6.07;;
22184;SDS011;11258;52.516;13.318;2023-05-07T06:43:22;8.07;;;6.03;;
22184;SDS011;11258;52.516;13.318;2023-05-07T06:45:48;9.73;;;6.00;;
22184;SDS011;11258;52.516;13.318;2023-05-07T06:48:13;11.43;;;7.03;;
22184;SDS011;11258;52.516;13.318;2023-05-07T06:50:39;7.13;;;6.03;;
22184;SDS011;11258;52.516;13.318;2023-05-07T06:53:06;9.63;;;6.68;;
22184;SDS011;11258;52.516;13.318;2023-05-07T06:55:32;8.30;;;5.83;;
22184;SDS011;11258;52.516;13.318;2023-05-07T06:57:57;7.27;;;5.50;;
22184;SDS011;11258;52.516;13.318;2023-05-07T07:00:26;7.87;;;5.60;;
22184;SDS011;11258;52.516;13.318;2023-05-07T07:02:52;7.30;;;5.47;;
22184;SDS011;11258;52.516;13.318;2023-05-07T07:05:18;6.83;;;5.43;;
22184;SDS011;11258;52.516;13.318;2023-05-07T07:07:44;8.03;;;5.97;;
22184;SDS011;11258;52.516;13.318;2023-05-07T07:10:09;6.93;;;5.67;;
22184;SDS011;11258;52.516;13.318;2023-05-07T07:12:35;8.60;;;6.17;;
22184;SDS011;11258;52.516;13.318;2023-05-07T07:15:01;9.87;;;5.27;;
22184;SDS011;11258;52.516;13.318;2023-05-07T07:17:27;6.10;;;5.10;;
22184;SDS011;11258;52.516;13.318;2023-05-07T07:19:53;6.50;;;5.33;;
22184;SDS011;11258;52.516;13.318;2023-05-07T07:22:19;7.22;;;4.50;;
22184;SDS011;11258;52.516;13.318;2023-05-07T07:24:44;6.03;;;4.32;;
22184;SDS011;11258;52.516;13.318;2023-05-07T07:27:10;5.97;;;4.00;;
22184;SDS011;11258;52.516;13.318;2023-05-07T07:29:36;4.28;;;3.75;;
22184;SDS011;11258;52.516;13.318;2023-05-07T07:32:01;4.35;;;3.78;;
22184;SDS011;11258;52.516;13.318;2023-05-07T07:34:27;4.90;;;3.80;;
22184;SDS011;11258;52.516;13.318;2023-05-07T07:36:52;5.13;;;4.05;;
22184;SDS011;11258;52.516;13.318;2023-05-07T07:39:18;3.88;;;3.50;;
22184;SDS011;11258;52.516;13.318;2023-05-07T07:41:44;4.43;;;3.00;;
22184;SDS011;11258;52.516;13.318;2023-05-07T07:44:09;5.18;;;3.60;;
22184;SDS011;11258;52.516;13.318;2023-05-07T07:46:37;5.35;;;4.07;;
22184;SDS011;11258;52.516;13.318;2023-05-07T07:49:03;5.53;;;3.75;;
22184;SDS011;11258;52.516;13.318;2023-05-07T07:51:29;5.55;;;3.65;;
22184;SDS011;11258;52.516;13.318;2023-05-07T07:53:55;4.32;;;3.33;;
22184;SDS011;11258;52.516;13.318;2023-05-07T07:56:22;3.97;;;3.20;;
22184;SDS011;11258;52.516;13.318;2023-05-07T07:58:48;10.48;;;8.10;;
22184;SDS011;11258;52.516;13.318;2023-05-07T08:01:14;6.47;;;4.93;;
22184;SDS011;11258;52.516;13.318;2023-05-07T08:03:41;7.03;;;5.35;;
22184;SDS011;11258;52.516;13.318;2023-05-07T08:06:07;3.38;;;2.80;;
22184;SDS011;11258;52.516;13.318;2023-05-07T08:08:32;7.72;;;4.75;;
22184;SDS011;11258;52.516;13.318;2023-05-07T08:10:58;6.47;;;4.07;;
22184;SDS011;11258;52.516;13.318;2023-05-07T08:13:23;4.57;;;3.47;;
22184;SDS011;11258;52.516;13.318;2023-05-07T08:15:49;4.30;;;3.25;;
22184;SDS011;11258;52.516;13.318;2023-05-07T08:18:15;6.15;;;4.45;;
22184;SDS011;11258;52.516;13.318;2023-05-07T08:20:40;3.70;;;3.33;;
22184;SDS011;11258;52.516;13.318;2023-05-07T08:23:07;6.03;;;4.55;;
22184;SDS011;11258;52.516;13.318;2023-05-07T08:25:33;6.72;;;3.28;;
22184;SDS011;11258;52.516;13.318;2023-05-07T08:27:59;5.38;;;2.97;;
22184;SDS011;11258;52.516;13.318;2023-05-07T08:30:25;3.05;;;2.65;;
22184;SDS011;11258;52.516;13.318;2023-05-07T08:32:51;8.75;;;6.57;;
22184;SDS011;11258;52.516;13.318;2023-05-07T08:35:17;4.82;;;3.63;;
22184;SDS011;11258;52.516;13.318;2023-05-07T08:37:43;4.40;;;3.35;;
22184;SDS011;11258;52.516;13.318;2023-05-07T08:40:10;5.70;;;4.15;;
22184;SDS011;11258;52.516;13.318;2023-05-07T08:42:36;5.53;;;3.03;;
22184;SDS011;11258;52.516;13.318;2023-05-07T08:45:03;6.70;;;3.25;;
22184;SDS011;11258;52.516;13.318;2023-05-07T08:47:43;5.45;;;3.30;;
22184;SDS011;11258;52.516;13.318;2023-05-07T08:50:11;7.43;;;3.63;;
22184;SDS011;11258;52.516;13.318;2023-05-07T08:52:37;4.68;;;3.30;;
22184;SDS011;11258;52.516;13.318;2023-05-07T08:55:05;4.68;;;2.78;;
22184;SDS011;11258;52.516;13.318;2023-05-07T08:57:32;3.50;;;2.78;;
22184;SDS011;11258;52.516;13.318;2023-05-07T08:59:58;6.07;;;2.47;;
22184;SDS011;11258;52.516;13.318;2023-05-07T09:02:24;3.33;;;2.63;;
22184;SDS011;11258;52.516;13.318;2023-05-07T09:04:49;3.22;;;2.38;;
22184;SDS011;11258;52.516;13.318;2023-05-07T09:07:16;3.63;;;2.67;;
22184;SDS011;11258;52.516;13.318;2023-05-07T09:09:42;5.45;;;2.88;;
22184;SDS011;11258;52.516;13.318;2023-05-07T09:12:09;4.18;;;2.53;;
22184;SDS011;11258;52.516;13.318;2023-05-07T09:14:35;4.85;;;3.35;;
22184;SDS011;11258;52.516;13.318;2023-05-07T09:17:00;5.00;;;2.80;;
22184;SDS011;11258;52.516;13.318;2023-05-07T09:19:26;4.70;;;2.72;;
22184;SDS011;11258;52.516;13.318;2023-05-07T09:21:59;4.00;;;2.95;;
22184;SDS011;11258;52.516;13.318;2023-05-07T09:24:26;3.13;;;2.30;;
22184;SDS011;11258;52.516;13.318;2023-05-07T09:26:53;3.42;;;2.53;;
22184;SDS011;11258;52.516;13.318;2023-05-07T09:29:20;4.82;;;2.83;;
22184;SDS011;11258;52.516;13.318;2023-05-07T09:31:46;3.67;;;2.67;;
22184;SDS011;11258;52.516;13.318;2023-05-07T09:34:11;3.42;;;2.65;;
22184;SDS011;11258;52.516;13.318;2023-05-07T09:36:37;4.22;;;2.85;;
22184;SDS011;11258;52.516;13.318;2023-05-07T09:39:03;4.10;;;2.55;;
22184;SDS011;11258;52.516;13.318;2023-05-07T09:41:29;3.70;;;2.35;;
22184;SDS011;11258;52.516;13.318;2023-05-07T09:43:57;6.30;;;3.08;;
22184;SDS011;11258;52.516;13.318;2023-05-07T09:46:25;4.18;;;3.17;;
22184;SDS011;11258;52.516;13.318;2023-05-07T09:48:55;5.45;;;2.75;;
22184;SDS011;11258;52.516;13.318;2023-05-07T09:51:29;5.15;;;2.55;;
22184;SDS011;11258;52.516;13.318;2023-05-07T09:54:00;3.47;;;2.80;;
22184;SDS011;11258;52.516;13.318;2023-05-07T09:56:29;4.47;;;2.55;;
22184;SDS011;11258;52.516;13.318;2023-05-07T09:58:56;5.10;;;2.75;;
22184;SDS011;11258;52.516;13.318;2023-05-07T10:01:25;2.75;;;2.45;;
22184;SDS011;11258;52.516;13.318;2023-05-07T10:03:52;3.13;;;2.63;;
22184;SDS011;11258;52.516;13.318;2023-05-07T10:06:19;5.22;;;2.55;;
22184;SDS011;11258;52.516;13.318;2023-05-07T10:08:45;2.90;;;2.38;;
22184;SDS011;11258;52.516;13.318;2023-05-07T10:11:11;4.80;;;2.50;;
22184;SDS011;11258;52.516;13.318;2023-05-07T10:13:38;5.22;;;2.58;;
22184;SDS011;11258;52.516;13.318;2023-05-07T10:16:06;3.53;;;2.15;;
22184;SDS011;11258;52.516;13.318;2023-05-07T10:18:32;2.72;;;2.38;;
22184;SDS011;11258;52.516;13.318;2023-05-07T10:21:04;2.45;;;2.00;;
22184;SDS011;11258;52.516;13.318;2023-05-07T10:23:31;2.30;;;1.90;;
22184;SDS011;11258;52.516;13.318;2023-05-07T10:25:58;2.92;;;2.53;;
22184;SDS011;11258;52.516;13.318;2023-05-07T10:28:25;3.17;;;2.00;;
22184;SDS011;11258;52.516;13.318;2023-05-07T10:31:07;2.75;;;2.03;;
22184;SDS011;11258;52.516;13.318;2023-05-07T10:33:34;4.00;;;2.00;;
22184;SDS011;11258;52.516;13.318;2023-05-07T10:36:01;3.50;;;1.83;;
22184;SDS011;11258;52.516;13.318;2023-05-07T10:38:29;1.92;;;1.58;;
22184;SDS011;11258;52.516;13.318;2023-05-07T10:40:56;4.28;;;2.15;;
22184;SDS011;11258;52.516;13.318;2023-05-07T10:43:22;1.58;;;1.45;;
22184;SDS011;11258;52.516;13.318;2023-05-07T10:48:32;1.77;;;1.63;;
22184;SDS011;11258;52.516;13.318;2023-05-07T10:51:18;1.73;;;1.58;;
22184;SDS011;11258;52.516;13.318;2023-05-07T10:53:45;1.42;;;1.33;;
22184;SDS011;11258;52.516;13.318;2023-05-07T10:58:43;2.08;;;1.60;;
22184;SDS011;11258;52.516;13.318;2023-05-07T11:01:10;1.85;;;1.42;;
22184;SDS011;11258;52.516;13.318;2023-05-07T11:04:12;3.80;;;1.48;;
22184;SDS011;11258;52.516;13.318;2023-05-07T11:06:23;2.20;;;1.40;;
22184;SDS011;11258;52.516;13.318;2023-05-07T11:08:56;3.50;;;1.67;;
22184;SDS011;11258;52.516;13.318;2023-05-07T11:14:07;3.22;;;1.40;;
22184;SDS011;11258;52.516;13.318;2023-05-07T11:16:33;1.65;;;1.30;;
22184;SDS011;11258;52.516;13.318;2023-05-07T11:19:01;1.58;;;1.48;;
22184;SDS011;11258;52.516;13.318;2023-05-07T11:24:03;3.00;;;1.52;;
22184;SDS011;11258;52.516;13.318;2023-05-07T11:26:30;1.70;;;1.30;;
22184;SDS011;11258;52.516;13.318;2023-05-07T11:28:57;2.10;;;1.65;;
22184;SDS011;11258;52.516;13.318;2023-05-07T11:31:25;1.73;;;1.40;;
22184;SDS011;11258;52.516;13.318;2023-05-07T11:33:53;1.50;;;1.40;;
22184;SDS011;11258;52.516;13.318;2023-05-07T11:36:20;2.28;;;1.67;;
22184;SDS011;11258;52.516;13.318;2023-05-07T11:38:46;2.15;;;1.33;;
22184;SDS011;11258;52.516;13.318;2023-05-07T11:41:12;2.08;;;1.65;;
22184;SDS011;11258;52.516;13.318;2023-05-07T11:43:40;5.28;;;1.70;;
22184;SDS011;11258;52.516;13.318;2023-05-07T11:46:19;3.47;;;1.73;;
22184;SDS011;11258;52.516;13.318;2023-05-07T11:48:45;3.00;;;1.60;;
22184;SDS011;11258;52.516;13.318;2023-05-07T11:51:12;2.15;;;1.88;;
22184;SDS011;11258;52.516;13.318;2023-05-07T11:53:41;4.18;;;2.00;;
22184;SDS011;11258;52.516;13.318;2023-05-07T11:56:08;2.25;;;2.00;;
22184;SDS011;11258;52.516;13.318;2023-05-07T11:58:34;1.80;;;1.48;;
22184;SDS011;11258;52.516;13.318;2023-05-07T12:01:01;1.92;;;1.65;;
22184;SDS011;11258;52.516;13.318;2023-05-07T12:03:27;3.40;;;1.75;;
22184;SDS011;11258;52.516;13.318;2023-05-07T12:05:53;2.50;;;1.70;;
22184;SDS011;11258;52.516;13.318;2023-05-07T12:08:19;2.65;;;1.40;;
22184;SDS011;11258;52.516;13.318;2023-05-07T12:10:46;1.92;;;1.60;;
22184;SDS011;11258;52.516;13.318;2023-05-07T12:15:42;4.32;;;1.60;;
22184;SDS011;11258;52.516;13.318;2023-05-07T12:18:08;1.60;;;1.40;;
22184;SDS011;11258;52.516;13.318;2023-05-07T12:20:35;2.83;;;1.98;;
22184;SDS011;11258;52.516;13.318;2023-05-07T12:23:01;1.55;;;1.45;;
22184;SDS011;11258;52.516;13.318;2023-05-07T12:25:45;4.32;;;1.60;;
22184;SDS011;11258;52.516;13.318;2023-05-07T12:28:13;4.65;;;1.83;;
22184;SDS011;11258;52.516;13.318;2023-05-07T12:30:40;1.83;;;1.23;;
22184;SDS011;11258;52.516;13.318;2023-05-07T12:33:07;1.95;;;1.60;;
22184;SDS011;11258;52.516;13.318;2023-05-07T12:35:38;1.67;;;1.58;;
22184;SDS011;11258;52.516;13.318;2023-05-07T12:38:07;1.40;;;1.20;;
22184;SDS011;11258;52.516;13.318;2023-05-07T12:43:05;2.35;;;1.48;;
22184;SDS011;11258;52.516;13.318;2023-05-07T12:45:35;2.92;;;1.60;;
22184;SDS011;11258;52.516;13.318;2023-05-07T12:48:02;2.78;;;1.45;;
22184;SDS011;11258;52.516;13.318;2023-05-07T12:50:31;6.45;;;2.70;;
22184;SDS011;11258;52.516;13.318;2023-05-07T12:52:58;2.53;;;1.60;;
22184;SDS011;11258;52.516;13.318;2023-05-07T12:55:24;2.90;;;1.80;;
22184;SDS011;11258;52.516;13.318;2023-05-07T12:57:50;1.80;;;1.40;;
22184;SDS011;11258;52.516;13.318;2023-05-07T13:00:17;3.65;;;1.65;;
22184;SDS011;11258;52.516;13.318;2023-05-07T13:02:43;1.65;;;1.40;;
22184;SDS011;11258;52.516;13.318;2023-05-07T13:05:09;2.63;;;1.90;;
22184;SDS011;11258;52.516;13.318;2023-05-07T13:07:36;4.28;;;1.48;;
22184;SDS011;11258;52.516;13.318;2023-05-07T13:10:02;3.03;;;1.73;;
22184;SDS011;11258;52.516;13.318;2023-05-07T13:12:28;2.40;;;1.40;;
22184;SDS011;11258;52.516;13.318;2023-05-07T13:14:54;2.83;;;1.27;;
22184;SDS011;11258;52.516;13.318;2023-05-07T13:17:20;2.20;;;1.40;;
22184;SDS011;11258;52.516;13.318;2023-05-07T13:19:46;1.80;;;1.30;;
22184;SDS011;11258;52.516;13.318;2023-05-07T13:22:13;2.58;;;1.50;;
22184;SDS011;11258;52.516;13.318;2023-05-07T13:24:38;4.75;;;1.30;;
22184;SDS011;11258;52.516;13.318;2023-05-07T13:27:06;1.42;;;1.10;;
22184;SDS011;11258;52.516;13.318;2023-05-07T13:29:32;1.85;;;1.17;;
22184;SDS011;11258;52.516;13.318;2023-05-07T13:31:58;1.85;;;1.58;;
22184;SDS011;11258;52.516;13.318;2023-05-07T13:34:24;1.85;;;1.40;;
22184;SDS011;11258;52.516;13.318;2023-05-07T13:36:50;1.70;;;1.20;;
22184;SDS011;11258;52.516;13.318;2023-05-07T13:39:17;2.13;;;1.20;;
22184;SDS011;11258;52.516;13.318;2023-05-07T13:41:43;1.73;;;1.10;;
22184;SDS011;11258;52.516;13.318;2023-05-07T13:44:09;2.88;;;1.25;;
22184;SDS011;11258;52.516;13.318;2023-05-07T13:46:35;1.13;;;1.05;;
22184;SDS011;11258;52.516;13.318;2023-05-07T13:49:01;1.52;;;1.23;;
22184;SDS011;11258;52.516;13.318;2023-05-07T13:51:27;5.72;;;2.00;;
22184;SDS011;11258;52.516;13.318;2023-05-07T13:53:53;2.03;;;1.05;;
22184;SDS011;11258;52.516;13.318;2023-05-07T13:56:19;1.17;;;1.08;;
22184;SDS011;11258;52.516;13.318;2023-05-07T13:58:46;1.33;;;1.20;;
22184;SDS011;11258;52.516;13.318;2023-05-07T14:01:12;1.90;;;1.23;;
22184;SDS011;11258;52.516;13.318;2023-05-07T14:03:38;1.65;;;1.25;;
22184;SDS011;11258;52.516;13.318;2023-05-07T14:06:04;2.05;;;1.40;;
22184;SDS011;11258;52.516;13.318;2023-05-07T14:08:31;2.05;;;1.38;;
22184;SDS011;11258;52.516;13.318;2023-05-07T14:10:57;3.10;;;1.42;;
22184;SDS011;11258;52.516;13.318;2023-05-07T14:13:23;3.53;;;1.10;;
22184;SDS011;11258;52.516;13.318;2023-05-07T14:15:49;1.38;;;1.05;;
22184;SDS011;11258;52.516;13.318;2023-05-07T14:18:15;4.28;;;1.50;;
22184;SDS011;11258;52.516;13.318;2023-05-07T14:20:41;4.00;;;1.23;;
22184;SDS011;11258;52.516;13.318;2023-05-07T14:23:11;3.90;;;1.13;;
22184;SDS011;11258;52.516;13.318;2023-05-07T14:25:37;2.05;;;1.42;;
22184;SDS011;11258;52.516;13.318;2023-05-07T14:28:03;1.55;;;1.23;;
22184;SDS011;11258;52.516;13.318;2023-05-07T14:30:30;3.42;;;1.55;;
22184;SDS011;11258;52.516;13.318;2023-05-07T14:32:56;2.15;;;1.70;;
22184;SDS011;11258;52.516;13.318;2023-05-07T14:35:22;1.65;;;1.30;;
22184;SDS011;11258;52.516;13.318;2023-05-07T14:37:48;2.20;;;1.38;;
22184;SDS011;11258;52.516;13.318;2023-05-07T14:40:14;3.00;;;1.23;;
22184;SDS011;11258;52.516;13.318;2023-05-07T14:42:40;3.78;;;1.50;;